Flight Track Log - Related Links

Times and Time Zones

All times are in EDT time to prevent confusion due to time zone crossing. See the N585KT flight status page for this flight to view local times or setup timezone preferences in your user account.

Time Position Orientation Groundspeed Altitude Reporting Facility
EDT Latitude Longitude Course Direction KTS MPH feet Rate Location/Type
Wed 09:53:03 AM 21.7525 -72.1992 226° Southwest 350 403 2,800  Level Miami Center
Wed 09:54:03 AM 21.7042 -72.1919 172° South 240 276 4,600 1,800 Climbing Miami Center
Wed 09:55:03 AM 21.6500 -72.1981 186° South 200 230 6,400 1,700 Climbing Miami Center
Wed 09:56:00 AM 21.4380 -72.6605 231° Southwest  Level FlightAware Approximate
Wed 09:56:03 AM 21.5917 -72.2003 182° South 200 230 8,000  Level Miami Center
Wed 09:57:00 AM 21.3864 -72.7292 231° Southwest  Level FlightAware Approximate
Wed 09:57:03 AM 21.5356 -72.2022 182° South 200 230 9,800  Level Miami Center
Wed 09:58:00 AM 21.3294 -72.7927 226° Southwest  Level FlightAware Approximate
Wed 09:58:03 AM 21.4769 -72.2042 182° South 200 230 11,300  Level Miami Center
Wed 09:59:03 AM 21.4183 -72.1972 174° South 205 236 12,800 1,550 Climbing Miami Center
Wed 10:00:03 AM 21.3597 -72.1903 174° South 216 249 14,400 1,500 Climbing Miami Center
Wed 10:01:03 AM 21.2972 -72.1881 178° South 221 254 15,800 1,400 Climbing Miami Center
Wed 10:02:03 AM 21.2367 -72.1903 182° South 221 254 17,200 1,400 Climbing Miami Center
Wed 10:03:03 AM 21.1722 -72.1947 184° South 221 254 18,600 1,250 Climbing Miami Center
Wed 10:04:03 AM 21.1078 -72.2014 186° South 227 261 19,700 1,100 Climbing Miami Center
Wed 10:05:03 AM 21.0389 -72.2036 182° South 240 276 20,800 1,100 Climbing Miami Center
Wed 10:06:03 AM 20.9703 -72.2106 185° South 245 282 21,900 1,100 Climbing Miami Center
Wed 10:07:03 AM 20.8994 -72.2128 182° South 250 288 23,000 1,000 Climbing Miami Center
Wed 10:08:03 AM 20.8286 -72.2175 184° South 255 293 23,900 950 Climbing Miami Center
Wed 10:09:03 AM 20.7581 -72.2244 185° South 255 293 24,900 900 Climbing Miami Center
Wed 10:10:03 AM 20.6853 -72.2311 185° South 255 293 25,700 900 Climbing Miami Center
Wed 10:11:03 AM 20.6103 -72.2383 185° South 261 300 26,700 900 Climbing Miami Center
Wed 10:12:03 AM 20.5356 -72.2453 185° South 266 306 27,500 650 Climbing Miami Center
Wed 10:13:03 AM 20.4583 -72.2478 182° South 272 313 28,000 250 Climbing Miami Center
Wed 10:14:03 AM 20.3819 -72.2767 200° South 282 325 28,000  Level Miami Center
Wed 10:15:03 AM 20.3192 -72.3408 224° Southwest 287 330 28,000  Level Miami Center
Wed 10:17:00 AM 20.2103 -72.4713 228° Southwest  Level FlightAware Approximate
Wed 10:24:00 AM 19.8189 -72.9380 228° Southwest  Level FlightAware Approximate
Wed 10:25:00 AM 19.7627 -73.0044 226° Southwest  Level FlightAware Approximate
Wed 10:26:00 AM 19.7041 -73.0683 226° Southwest  Level FlightAware Approximate
Wed 10:27:00 AM 19.6455 -73.1321 226° Southwest  Level FlightAware Approximate
Wed 10:28:00 AM 19.5868 -73.1960 226° Southwest  Level FlightAware Approximate
Wed 10:29:00 AM 19.5282 -73.2597 226° Southwest  Level FlightAware Approximate
Wed 10:30:00 AM 19.4695 -73.3234 226° Southwest  Level FlightAware Approximate
Wed 10:31:00 AM 19.4108 -73.3871 226° Southwest  Level FlightAware Approximate
Wed 10:32:00 AM 19.3520 -73.4508 226° Southwest  Level FlightAware Approximate
Wed 10:33:00 AM 19.2933 -73.5144 226° Southwest  Level FlightAware Approximate
Wed 10:34:00 AM 19.2345 -73.5779 226° Southwest  Level FlightAware Approximate
Wed 10:35:00 AM 19.1757 -73.6414 226° Southwest  Level FlightAware Approximate
Wed 10:36:00 AM 19.1169 -73.7048 226° Southwest  Level FlightAware Approximate
Wed 10:37:00 AM 19.0581 -73.7682 226° Southwest  Level FlightAware Approximate
Wed 10:38:00 AM 18.9992 -73.8316 226° Southwest  Level FlightAware Approximate
Wed 10:39:00 AM 18.9403 -73.8949 225° Southwest  Level FlightAware Approximate
Wed 10:40:00 AM 18.8814 -73.9582 225° Southwest  Level FlightAware Approximate
Wed 10:41:00 AM 18.8225 -74.0214 225° Southwest  Level FlightAware Approximate
Wed 10:42:00 AM 18.7636 -74.0846 225° Southwest  Level FlightAware Approximate
Wed 10:43:00 AM 18.7046 -74.1478 225° Southwest  Level FlightAware Approximate
Wed 10:44:00 AM 18.6456 -74.2108 225° Southwest  Level FlightAware Approximate
Wed 10:45:00 AM 18.5866 -74.2739 225° Southwest  Level FlightAware Approximate
Wed 10:46:00 AM 18.5276 -74.3369 225° Southwest  Level FlightAware Approximate
Wed 10:47:00 AM 18.4685 -74.3999 225° Southwest  Level FlightAware Approximate
Wed 10:48:00 AM 18.4095 -74.4628 225° Southwest  Level FlightAware Approximate
Wed 10:49:00 AM 18.3504 -74.5257 225° Southwest  Level FlightAware Approximate
Wed 10:50:00 AM 18.2913 -74.5885 225° Southwest  Level FlightAware Approximate
Wed 10:51:00 AM 18.2331 -74.6518 262° West  Level FlightAware Approximate
Wed 10:52:00 AM 18.2212 -74.7393 262° West  Level FlightAware Approximate
Wed 10:53:00 AM 18.2093 -74.8268 262° West  Level FlightAware Approximate
Wed 10:54:00 AM 18.1974 -74.9143 262° West  Level FlightAware Approximate
Wed 10:55:00 AM 18.1854 -75.0018 262° West  Level FlightAware Approximate
Wed 10:56:00 AM 18.1722 -75.0891 261° West  Level FlightAware Approximate
Wed 10:57:00 AM 18.1588 -75.1764 261° West  Level FlightAware Approximate
Wed 10:58:00 AM 18.1464 -75.2638 263° West  Level FlightAware Approximate
Wed 10:59:00 AM 18.1362 -75.3515 263° West  Level FlightAware Approximate
Wed 11:00:00 AM 18.1258 -75.4391 263° West  Level FlightAware Approximate
Wed 11:01:00 AM 18.1151 -75.5268 261° West  Level FlightAware Approximate
Wed 11:02:00 AM 18.1018 -75.6140 261° West  Level FlightAware Approximate
Wed 11:03:00 AM 18.0884 -75.7012 261° West  Level FlightAware Approximate
Wed 11:04:00 AM 18.0750 -75.7884 261° West  Level FlightAware Approximate
Wed 11:05:00 AM 18.0615 -75.8756 261° West  Level FlightAware Approximate
Wed 11:06:00 AM 18.0484 -75.9629 263° West  Level FlightAware Approximate
Wed 11:07:00 AM 18.0375 -76.0504 263° West  Level FlightAware Approximate
Wed 11:08:00 AM 18.0142 -76.1339 261° West  Level FlightAware Approximate
Wed 11:09:00 AM 18.0018 -76.2213 261° West  Level FlightAware Approximate
Wed 11:10:00 AM 17.9893 -76.3086 261° West  Level FlightAware Approximate
Wed 11:11:00 AM 17.9787 -76.3962 264° West  Level FlightAware Approximate
Wed 11:12:00 AM 17.9699 -76.4840 264° West  Level FlightAware Approximate
Wed 11:13:00 AM 17.9573 -76.5708 255° West  Level FlightAware Approximate
Wed 11:14:00 AM 17.9386 -76.6568 258° West  Level FlightAware Approximate
Wed 11:15:00 AM 17.9214 -76.7432 258° West  Level FlightAware Approximate
Wed 11:16:00 AM 17.9167 -76.7667 North  Level FlightAware Approximate
Wed 11:17:00 AM 17.9357 -76.7875 North  Level Estimated
Wed 11:18:00 AM 17.9357 -76.7875 North  Level Estimated
Wed 11:19:00 AM 17.9357 -76.7875 North  Level Estimated
Wed 11:20:00 AM 17.9357 -76.7875 North  Level Estimated
Wed 11:21:00 AM 17.9357 -76.7875 North  Level Estimated
Wed 11:22:00 AM 17.9357 -76.7875 North  Level Estimated
Wed 11:23:00 AM 17.9357 -76.7875 North  Level Estimated
Wed 11:24:00 AM 17.9357 -76.7875 North  Level Estimated

Login

Don't have an account? Register now (free) for customized features, flight alerts, and more!